Time;durP1;ratioP1;P1;durP2;ratioP2;P2;SDS_P1;SDS_P2;PMS_P1;PMS_P2;Temp;Humidity;BMP_temperature;BMP_pressure;BME280_temperature;BME280_humidity;BME280_pressure;Samples;Min_cycle;Max_cycle;Signal;HPM_P1;HPM_P2
2021/11/09 00:07:48;;;;;;;25.2;15.3;;;;;;;5.8;79.5;102280;;;;
2021/11/09 00:15:40;;;;;;;26.5;15.1;;;;;;;5.9;79.1;102280;;;;
2021/11/09 00:19:40;;;;;;;26.5;15.1;;;;;;;5.7;79.6;102270;;;;
2021/11/09 00:23:40;;;;;;;26.5;15.1;;;;;;;5.8;79.1;102270;;;;
2021/11/09 00:29:40;;;;;;;26.5;15.1;;;;;;;5.7;79.1;102270;;;;
2021/11/09 00:39:41;;;;;;;27.2;16.4;;;;;;;5.8;78.9;102290;;;;
2021/11/09 00:53:40;;;;;;;24.7;15.1;;;;;;;5.7;78.7;102290;;;;
2021/11/09 00:59:40;;;;;;;24.7;15.1;;;;;;;5.6;78.8;102280;;;;
2021/11/09 01:03:40;;;;;;;24.7;15.1;;;;;;;5.5;79.2;102280;;;;
2021/11/09 01:05:40;;;;;;;24.7;15.1;;;;;;;5.4;78.9;102280;;;;
2021/11/09 01:07:40;;;;;;;24.7;15.1;;;;;;;5.5;78.7;102290;;;;
2021/11/09 01:09:40;;;;;;;24.7;15.1;;;;;;;5.4;79.3;102300;;;;
2021/11/09 01:19:40;;;;;;;26.6;15.9;;;;;;;5.3;79.5;102300;;;;
2021/11/09 01:23:40;;;;;;;26.6;15.9;;;;;;;5.4;79.4;102290;;;;
2021/11/09 01:27:40;;;;;;;26.6;15.9;;;;;;;5.3;79.1;102300;;;;
2021/11/09 01:39:40;;;;;;;25.8;14.7;;;;;;;5.2;79.3;102300;;;;
2021/11/09 01:51:40;;;;;;;25.8;14.7;;;;;;;5.1;79.8;102290;;;;
2021/11/09 01:53:40;;;;;;;24.5;16.8;;;;;;;5.2;79.5;102290;;;;
2021/11/09 01:55:40;;;;;;;24.5;16.8;;;;;;;5.1;79.5;102290;;;;
2021/11/09 01:57:40;;;;;;;24.5;16.8;;;;;;;5.0;79.9;102290;;;;
2021/11/09 02:01:40;;;;;;;24.5;16.8;;;;;;;5.1;79.6;102300;;;;
2021/11/09 02:05:42;;;;;;;24.5;16.8;;;;;;;4.9;80.5;102300;;;;
2021/11/09 02:11:40;;;;;;;24.5;16.8;;;;;;;5.0;80.2;102300;;;;
2021/11/09 02:19:40;;;;;;;27.5;17.1;;;;;;;4.9;79.6;102300;;;;
2021/11/09 02:21:40;;;;;;;27.5;17.1;;;;;;;5.0;79.9;102300;;;;
2021/11/09 02:23:41;;;;;;;27.5;17.1;;;;;;;4.9;79.7;102310;;;;
2021/11/09 02:25:42;;;;;;;27.5;17.1;;;;;;;5.0;79.4;102310;;;;
2021/11/09 02:37:40;;;;;;;26.3;15.7;;;;;;;4.9;79.8;102300;;;;
2021/11/09 02:39:40;;;;;;;26.3;15.7;;;;;;;4.8;80.2;102310;;;;
2021/11/09 02:41:40;;;;;;;26.3;15.7;;;;;;;4.7;80.4;102300;;;;
2021/11/09 02:57:52;;;;;;;30.3;17.7;;;;;;;4.6;81.0;102300;;;;
2021/11/09 03:09:48;;;;;;;30.3;17.7;;;;;;;4.5;80.6;102300;;;;
2021/11/09 03:15:40;;;;;;;31.7;18.3;;;;;;;4.6;80.7;102300;;;;
2021/11/09 03:17:52;;;;;;;31.7;18.3;;;;;;;4.5;80.8;102290;;;;
2021/11/09 03:51:40;;;;;;;30.2;19.0;;;;;;;4.5;81.3;102300;;;;
2021/11/09 03:53:40;;;;;;;28.1;18.3;;;;;;;4.4;80.8;102300;;;;
2021/11/09 03:57:49;;;;;;;28.1;18.3;;;;;;;4.5;81.1;102300;;;;
2021/11/09 04:07:49;;;;;;;28.1;18.3;;;;;;;4.2;81.4;102310;;;;
2021/11/09 04:09:52;;;;;;;28.1;18.3;;;;;;;4.3;81.6;102300;;;;
2021/11/09 05:15:40;;;;;;;31.7;19.3;;;;;;;4.2;81.6;102350;;;;
2021/11/09 05:17:40;;;;;;;31.7;19.3;;;;;;;4.1;81.4;102340;;;;
2021/11/09 05:31:40;;;;;;;31.7;19.3;;;;;;;4.2;81.5;102350;;;;
2021/11/09 05:33:40;;;;;;;38.4;19.8;;;;;;;4.1;81.5;102350;;;;
2021/11/09 05:39:46;;;;;;;38.4;19.8;;;;;;;4.0;81.9;102360;;;;
2021/11/09 05:41:41;;;;;;;38.4;19.8;;;;;;;4.1;81.8;102360;;;;
2021/11/09 05:43:40;;;;;;;38.4;19.8;;;;;;;4.0;82.4;102370;;;;
2021/11/09 05:55:43;;;;;;;30.9;19.4;;;;;;;4.1;82.1;102370;;;;
2021/11/09 05:57:40;;;;;;;30.9;19.4;;;;;;;4.0;81.8;102370;;;;
2021/11/09 05:59:40;;;;;;;30.9;19.4;;;;;;;3.9;81.8;102370;;;;
2021/11/09 06:01:40;;;;;;;30.9;19.4;;;;;;;4.0;82.4;102380;;;;
2021/11/09 06:03:40;;;;;;;30.9;19.4;;;;;;;3.9;82.6;102380;;;;
2021/11/09 06:13:40;;;;;;;31.8;19.1;;;;;;;4.0;82.7;102380;;;;
2021/11/09 06:17:40;;;;;;;31.8;19.1;;;;;;;3.8;83.5;102390;;;;
2021/11/09 06:19:40;;;;;;;31.8;19.1;;;;;;;3.9;83.1;102390;;;;
2021/11/09 06:21:40;;;;;;;31.8;19.1;;;;;;;4.0;83.0;102390;;;;
2021/11/09 06:23:40;;;;;;;31.8;19.1;;;;;;;3.9;82.6;102390;;;;
2021/11/09 06:29:40;;;;;;;31.8;19.1;;;;;;;3.8;83.3;102400;;;;
2021/11/09 06:31:41;;;;;;;38.0;21.1;;;;;;;3.9;83.5;102400;;;;
2021/11/09 06:33:40;;;;;;;38.0;21.1;;;;;;;3.8;83.4;102390;;;;
2021/11/09 06:35:40;;;;;;;38.0;21.1;;;;;;;4.0;83.5;102400;;;;
2021/11/09 06:37:40;;;;;;;38.0;21.1;;;;;;;3.9;83.5;102400;;;;
2021/11/09 06:39:40;;;;;;;38.0;21.1;;;;;;;3.8;83.6;102400;;;;
2021/11/09 06:43:40;;;;;;;38.0;21.1;;;;;;;3.9;83.2;102400;;;;
2021/11/09 06:45:40;;;;;;;38.0;21.1;;;;;;;3.8;83.9;102400;;;;
2021/11/09 06:53:40;;;;;;;34.1;21.4;;;;;;;3.9;83.0;102410;;;;
2021/11/09 06:57:40;;;;;;;34.1;21.4;;;;;;;3.8;83.3;102410;;;;
2021/11/09 06:59:40;;;;;;;34.1;21.4;;;;;;;3.9;83.3;102420;;;;
2021/11/09 07:01:40;;;;;;;34.1;21.4;;;;;;;3.8;82.9;102420;;;;
2021/11/09 07:09:40;;;;;;;34.1;21.4;;;;;;;3.9;82.8;102420;;;;
2021/11/09 07:13:42;;;;;;;35.1;20.0;;;;;;;4.0;82.9;102430;;;;
2021/11/09 07:15:40;;;;;;;35.1;20.0;;;;;;;3.9;82.9;102420;;;;
2021/11/09 07:17:40;;;;;;;35.1;20.0;;;;;;;3.8;82.6;102430;;;;
2021/11/09 07:19:40;;;;;;;35.1;20.0;;;;;;;3.9;82.5;102430;;;;
2021/11/09 07:25:40;;;;;;;35.1;20.0;;;;;;;3.8;82.8;102430;;;;
2021/11/09 07:27:41;;;;;;;35.1;20.0;;;;;;;3.9;83.5;102430;;;;
2021/11/09 07:39:42;;;;;;;35.5;19.5;;;;;;;4.0;83.4;102440;;;;
2021/11/09 07:47:40;;;;;;;35.5;19.5;;;;;;;4.1;83.1;102450;;;;
2021/11/09 07:53:41;;;;;;;33.2;18.4;;;;;;;4.0;82.9;102460;;;;
2021/11/09 07:56:05;;;;;;;33.2;18.4;;;;;;;4.2;82.9;102450;;;;
2021/11/09 07:57:44;;;;;;;33.2;18.4;;;;;;;4.1;83.1;102460;;;;
2021/11/09 08:03:47;;;;;;;33.2;18.4;;;;;;;4.3;83.4;102470;;;;
2021/11/09 08:07:52;;;;;;;33.2;18.4;;;;;;;4.3;82.9;102470;;;;
2021/11/09 08:11:42;;;;;;;33.2;19.4;;;;;;;4.4;83.2;102470;;;;
2021/11/09 08:13:40;;;;;;;33.2;19.4;;;;;;;4.3;83.7;102470;;;;
2021/11/09 08:21:40;;;;;;;33.2;19.4;;;;;;;4.6;84.1;102460;;;;
2021/11/09 08:23:40;;;;;;;33.2;19.4;;;;;;;4.5;83.7;102460;;;;
2021/11/09 08:25:40;;;;;;;33.2;19.4;;;;;;;4.6;83.4;102470;;;;
2021/11/09 08:29:41;;;;;;;33.2;19.4;;;;;;;4.8;83.7;102470;;;;
2021/11/09 08:35:40;;;;;;;29.2;19.2;;;;;;;5.0;83.3;102460;;;;
2021/11/09 08:39:43;;;;;;;29.2;19.2;;;;;;;5.1;83.5;102460;;;;
2021/11/09 08:41:44;;;;;;;29.2;19.2;;;;;;;5.2;83.7;102470;;;;
2021/11/09 08:47:45;;;;;;;29.2;19.2;;;;;;;5.4;83.8;102460;;;;
2021/11/09 08:49:40;;;;;;;29.2;19.2;;;;;;;5.3;83.7;102460;;;;
2021/11/09 09:05:40;;;;;;;27.4;18.0;;;;;;;5.9;83.6;102460;;;;
2021/11/09 09:09:40;;;;;;;27.4;18.0;;;;;;;6.2;83.2;102460;;;;
2021/11/09 09:15:40;;;;;;;31.2;17.7;;;;;;;6.3;82.8;102460;;;;
2021/11/09 09:19:42;;;;;;;31.2;17.7;;;;;;;6.4;83.2;102460;;;;
2021/11/09 09:21:50;;;;;;;31.2;17.7;;;;;;;6.5;82.7;102460;;;;
2021/11/09 09:25:48;;;;;;;31.2;17.7;;;;;;;6.7;82.5;102460;;;;
2021/11/09 09:52:05;;;;;;;27.3;16.1;;;;;;;7.0;81.9;102460;;;;
2021/11/09 09:57:40;;;;;;;24.8;14.4;;;;;;;7.9;79.8;102450;;;;
2021/11/09 09:59:41;;;;;;;24.8;14.4;;;;;;;7.8;80.2;102450;;;;
2021/11/09 10:01:40;;;;;;;24.8;14.4;;;;;;;7.9;80.6;102460;;;;
2021/11/09 10:03:40;;;;;;;24.8;14.4;;;;;;;8.0;80.7;102460;;;;
2021/11/09 10:07:40;;;;;;;24.8;14.4;;;;;;;8.1;79.1;102460;;;;
2021/11/09 10:15:40;;;;;;;23.7;13.8;;;;;;;8.2;79.2;102460;;;;
2021/11/09 10:23:41;;;;;;;23.7;13.8;;;;;;;8.3;78.8;102460;;;;
2021/11/09 10:25:45;;;;;;;23.7;13.8;;;;;;;8.4;78.5;102460;;;;
2021/11/09 10:29:40;;;;;;;23.7;13.8;;;;;;;8.3;78.9;102460;;;;
2021/11/09 10:31:40;;;;;;;25.5;13.5;;;;;;;8.5;78.9;102460;;;;
2021/11/09 10:35:40;;;;;;;25.5;13.5;;;;;;;8.7;79.0;102450;;;;
2021/11/09 10:37:44;;;;;;;25.5;13.5;;;;;;;8.8;77.9;102450;;;;
2021/11/09 10:43:40;;;;;;;25.5;13.5;;;;;;;8.9;78.0;102450;;;;
2021/11/09 10:45:40;;;;;;;25.5;13.5;;;;;;;9.0;77.6;102450;;;;
2021/11/09 10:47:41;;;;;;;25.5;13.5;;;;;;;9.1;77.0;102450;;;;
2021/11/09 10:51:40;;;;;;;24.7;13.0;;;;;;;9.2;76.4;102450;;;;
2021/11/09 10:53:41;;;;;;;24.7;13.0;;;;;;;9.1;76.0;102450;;;;
2021/11/09 11:07:40;;;;;;;24.7;13.0;;;;;;;9.4;76.1;102440;;;;
2021/11/09 11:09:40;;;;;;;24.7;13.0;;;;;;;9.5;75.2;102430;;;;
2021/11/09 11:15:40;;;;;;;24.4;12.5;;;;;;;9.7;74.5;102430;;;;
2021/11/09 11:21:40;;;;;;;24.4;12.5;;;;;;;9.6;75.3;102430;;;;
2021/11/09 11:23:42;;;;;;;24.4;12.5;;;;;;;9.7;75.4;102430;;;;
2021/11/09 11:25:40;;;;;;;24.4;12.5;;;;;;;9.8;74.4;102440;;;;
2021/11/09 11:31:40;;;;;;;24.0;11.3;;;;;;;9.7;74.4;102440;;;;
2021/11/09 11:33:40;;;;;;;24.0;11.3;;;;;;;9.8;74.5;102440;;;;
2021/11/09 11:35:40;;;;;;;24.0;11.3;;;;;;;10.0;74.9;102440;;;;
2021/11/09 11:41:40;;;;;;;24.0;11.3;;;;;;;10.1;74.1;102440;;;;
2021/11/09 11:45:40;;;;;;;24.0;11.3;;;;;;;10.0;74.7;102440;;;;
2021/11/09 11:47:40;;;;;;;24.0;11.3;;;;;;;10.1;74.1;102440;;;;
2021/11/09 11:51:40;;;;;;;20.4;10.9;;;;;;;10.2;73.5;102430;;;;
2021/11/09 11:53:40;;;;;;;20.4;10.9;;;;;;;10.1;74.0;102430;;;;
2021/11/09 11:55:40;;;;;;;20.4;10.9;;;;;;;10.2;73.7;102430;;;;
2021/11/09 11:57:41;;;;;;;20.4;10.9;;;;;;;10.3;72.8;102420;;;;
2021/11/09 12:03:40;;;;;;;20.4;10.9;;;;;;;10.4;72.6;102420;;;;
2021/11/09 12:05:40;;;;;;;20.4;10.9;;;;;;;10.3;72.6;102410;;;;
2021/11/09 12:07:40;;;;;;;20.4;10.9;;;;;;;10.4;72.9;102410;;;;
2021/11/09 12:11:46;;;;;;;18.6;9.7;;;;;;;10.5;72.4;102410;;;;
2021/11/09 12:13:40;;;;;;;18.6;9.7;;;;;;;10.6;71.4;102410;;;;
2021/11/09 12:15:40;;;;;;;18.6;9.7;;;;;;;10.5;72.2;102410;;;;
2021/11/09 12:17:40;;;;;;;18.6;9.7;;;;;;;10.4;71.9;102410;;;;
2021/11/09 12:19:43;;;;;;;18.6;9.7;;;;;;;10.5;70.0;102410;;;;
2021/11/09 12:25:40;;;;;;;18.6;9.7;;;;;;;10.6;71.4;102400;;;;
2021/11/09 12:31:40;;;;;;;15.4;7.6;;;;;;;10.8;70.3;102390;;;;
2021/11/09 12:35:40;;;;;;;15.4;7.6;;;;;;;10.7;70.3;102390;;;;
2021/11/09 12:37:40;;;;;;;15.4;7.6;;;;;;;10.8;70.5;102390;;;;
2021/11/09 12:41:40;;;;;;;15.4;7.6;;;;;;;10.9;69.1;102380;;;;
2021/11/09 12:49:40;;;;;;;15.4;7.6;;;;;;;10.7;68.0;102370;;;;
2021/11/09 12:51:40;;;;;;;14.9;7.0;;;;;;;10.8;68.5;102370;;;;
2021/11/09 12:53:40;;;;;;;14.9;7.0;;;;;;;10.7;68.5;102370;;;;
2021/11/09 12:55:40;;;;;;;14.9;7.0;;;;;;;10.9;68.3;102370;;;;
2021/11/09 13:01:47;;;;;;;14.9;7.0;;;;;;;10.9;69.0;102370;;;;
2021/11/09 13:09:44;;;;;;;14.9;7.0;;;;;;;11.0;68.1;102360;;;;
2021/11/09 13:17:43;;;;;;;15.5;6.8;;;;;;;11.1;67.9;102360;;;;
2021/11/09 13:19:42;;;;;;;15.5;6.8;;;;;;;11.0;68.1;102360;;;;
2021/11/09 13:23:40;;;;;;;15.5;6.8;;;;;;;11.1;66.4;102350;;;;
2021/11/09 13:25:40;;;;;;;15.5;6.8;;;;;;;11.0;68.0;102350;;;;
2021/11/09 13:27:40;;;;;;;15.5;6.8;;;;;;;11.1;66.2;102350;;;;
2021/11/09 13:29:40;;;;;;;15.5;6.8;;;;;;;11.2;65.4;102350;;;;
2021/11/09 13:33:41;;;;;;;13.1;6.7;;;;;;;11.1;65.3;102350;;;;
2021/11/09 13:45:40;;;;;;;13.1;6.7;;;;;;;11.2;65.8;102340;;;;
2021/11/09 14:01:41;;;;;;;15.5;6.2;;;;;;;11.3;63.9;102330;;;;
2021/11/09 14:09:48;;;;;;;15.5;6.2;;;;;;;11.3;67.1;102330;;;;
2021/11/09 14:11:59;;;;;;;16.2;6.2;;;;;;;11.2;65.9;102330;;;;
2021/11/09 14:13:51;;;;;;;16.2;6.2;;;;;;;11.1;65.8;102330;;;;
2021/11/09 14:15:46;;;;;;;16.2;6.2;;;;;;;11.2;66.0;102320;;;;
2021/11/09 14:19:41;;;;;;;16.2;6.2;;;;;;;11.1;67.1;102330;;;;
2021/11/09 14:21:41;;;;;;;16.2;6.2;;;;;;;11.2;66.6;102320;;;;
2021/11/09 14:31:45;;;;;;;12.4;5.6;;;;;;;11.1;65.6;102310;;;;
2021/11/09 14:53:44;;;;;;;12.2;5.4;;;;;;;11.0;67.0;102320;;;;
2021/11/09 15:03:40;;;;;;;12.2;5.4;;;;;;;10.9;67.3;102320;;;;
2021/11/09 15:05:41;;;;;;;12.2;5.4;;;;;;;11.0;67.2;102320;;;;
2021/11/09 15:07:55;;;;;;;12.2;5.4;;;;;;;10.9;68.0;102320;;;;
2021/11/09 15:25:51;;;;;;;12.0;4.9;;;;;;;10.7;68.5;102300;;;;
2021/11/09 15:29:48;;;;;;;12.4;5.6;;;;;;;10.6;70.6;102310;;;;
2021/11/09 15:35:45;;;;;;;12.4;5.6;;;;;;;10.5;69.7;102310;;;;
2021/11/09 15:39:41;;;;;;;12.4;5.6;;;;;;;10.4;70.7;102300;;;;
2021/11/09 15:45:40;;;;;;;12.4;5.6;;;;;;;10.3;70.3;102300;;;;
2021/11/09 15:51:40;;;;;;;12.9;6.2;;;;;;;10.2;71.6;102300;;;;
2021/11/09 15:53:40;;;;;;;12.9;6.2;;;;;;;10.1;71.0;102300;;;;
2021/11/09 15:57:40;;;;;;;12.9;6.2;;;;;;;10.0;71.6;102300;;;;
2021/11/09 16:01:41;;;;;;;12.9;6.2;;;;;;;9.9;71.6;102300;;;;
2021/11/09 16:07:41;;;;;;;12.9;6.2;;;;;;;9.8;72.3;102310;;;;
2021/11/09 16:11:40;;;;;;;11.3;5.8;;;;;;;9.7;72.2;102310;;;;
2021/11/09 16:15:40;;;;;;;11.3;5.8;;;;;;;9.6;72.2;102320;;;;
2021/11/09 16:21:40;;;;;;;11.3;5.8;;;;;;;9.5;72.0;102320;;;;
2021/11/09 16:25:40;;;;;;;11.3;5.8;;;;;;;9.4;72.5;102310;;;;
2021/11/09 16:29:40;;;;;;;13.9;9.5;;;;;;;9.5;72.7;102320;;;;
2021/11/09 16:31:40;;;;;;;13.9;9.5;;;;;;;9.4;73.1;102320;;;;
2021/11/09 16:33:40;;;;;;;13.9;9.5;;;;;;;9.3;72.3;102320;;;;
2021/11/09 16:37:41;;;;;;;13.9;9.5;;;;;;;9.2;71.8;102330;;;;
2021/11/09 16:41:40;;;;;;;13.9;9.5;;;;;;;9.1;73.2;102330;;;;
2021/11/09 16:47:41;;;;;;;13.9;9.5;;;;;;;9.0;72.4;102330;;;;
2021/11/09 16:51:42;;;;;;;20.3;13.9;;;;;;;9.0;72.7;102330;;;;
2021/11/09 18:21:40;;;;;;;21.5;9.5;;;;;;;7.7;74.7;102390;;;;
2021/11/09 18:33:40;;;;;;;18.2;9.2;;;;;;;7.6;74.6;102380;;;;
2021/11/09 18:39:40;;;;;;;18.2;9.2;;;;;;;7.5;74.2;102380;;;;
2021/11/09 18:43:42;;;;;;;18.2;9.2;;;;;;;7.4;74.5;102380;;;;
2021/11/09 18:53:40;;;;;;;16.3;10.2;;;;;;;7.3;74.7;102360;;;;
2021/11/09 19:01:40;;;;;;;16.3;10.2;;;;;;;7.2;74.8;102360;;;;
2021/11/09 19:11:40;;;;;;;17.7;11.8;;;;;;;7.1;74.7;102350;;;;
2021/11/09 19:19:40;;;;;;;17.7;11.8;;;;;;;7.0;75.1;102340;;;;
2021/11/09 19:27:40;;;;;;;17.7;11.8;;;;;;;6.9;75.8;102330;;;;
2021/11/09 19:29:40;;;;;;;19.1;11.1;;;;;;;7.0;74.9;102330;;;;
2021/11/09 19:31:40;;;;;;;19.1;11.1;;;;;;;6.9;75.1;102330;;;;
2021/11/09 19:39:40;;;;;;;19.1;11.1;;;;;;;6.8;75.4;102320;;;;
2021/11/09 19:43:41;;;;;;;19.1;11.1;;;;;;;6.7;74.9;102310;;;;
2021/11/09 19:47:40;;;;;;;19.1;11.1;;;;;;;6.8;75.9;102320;;;;
2021/11/09 19:51:40;;;;;;;21.8;14.9;;;;;;;6.7;75.4;102320;;;;
2021/11/09 19:59:40;;;;;;;21.8;14.9;;;;;;;6.6;75.3;102310;;;;
2021/11/09 20:13:42;;;;;;;26.9;17.7;;;;;;;6.5;75.0;102300;;;;
2021/11/09 20:19:42;;;;;;;26.9;17.7;;;;;;;6.4;75.6;102300;;;;
2021/11/09 20:27:41;;;;;;;26.9;17.7;;;;;;;6.3;76.1;102300;;;;
2021/11/09 20:33:40;;;;;;;30.8;18.9;;;;;;;6.2;76.0;102300;;;;
2021/11/09 20:49:40;;;;;;;27.7;18.8;;;;;;;6.1;75.5;102310;;;;
2021/11/09 20:51:40;;;;;;;27.7;18.8;;;;;;;5.9;76.7;102310;;;;
2021/11/09 20:53:40;;;;;;;27.7;18.8;;;;;;;6.0;76.0;102320;;;;
2021/11/09 20:55:40;;;;;;;27.7;18.8;;;;;;;6.1;76.6;102310;;;;
2021/11/09 21:03:42;;;;;;;27.7;18.8;;;;;;;6.0;76.2;102320;;;;
2021/11/09 21:11:40;;;;;;;23.3;18.8;;;;;;;5.9;76.4;102320;;;;
2021/11/09 21:21:40;;;;;;;23.3;18.8;;;;;;;5.8;76.0;102330;;;;
2021/11/09 21:23:41;;;;;;;23.3;18.8;;;;;;;5.7;76.2;102330;;;;
2021/11/09 21:37:40;;;;;;;23.5;16.5;;;;;;;5.6;76.8;102330;;;;
2021/11/09 21:43:40;;;;;;;23.5;16.5;;;;;;;5.7;76.8;102330;;;;
2021/11/09 21:45:40;;;;;;;23.5;16.5;;;;;;;5.6;76.8;102330;;;;
2021/11/09 21:57:40;;;;;;;28.9;19.3;;;;;;;5.5;76.5;102330;;;;
2021/11/09 21:59:40;;;;;;;28.9;19.3;;;;;;;5.3;77.1;102340;;;;
2021/11/09 22:01:40;;;;;;;28.9;19.3;;;;;;;5.4;77.1;102330;;;;
2021/11/09 22:03:40;;;;;;;28.9;19.3;;;;;;;5.5;76.9;102330;;;;
2021/11/09 22:07:40;;;;;;;28.9;19.3;;;;;;;5.6;76.5;102330;;;;
2021/11/09 22:09:40;;;;;;;26.3;17.4;;;;;;;5.5;76.3;102330;;;;
2021/11/09 22:13:40;;;;;;;26.3;17.4;;;;;;;5.3;76.3;102330;;;;
2021/11/09 22:15:40;;;;;;;26.3;17.4;;;;;;;5.4;76.5;102330;;;;
2021/11/09 22:17:40;;;;;;;26.3;17.4;;;;;;;5.3;76.8;102320;;;;
2021/11/09 22:19:40;;;;;;;26.3;17.4;;;;;;;5.4;76.3;102320;;;;
2021/11/09 22:23:40;;;;;;;26.3;17.4;;;;;;;5.3;76.9;102330;;;;
2021/11/09 22:27:40;;;;;;;26.3;17.4;;;;;;;5.4;76.8;102330;;;;
2021/11/09 22:31:40;;;;;;;25.5;16.1;;;;;;;5.3;76.9;102340;;;;
2021/11/09 22:37:40;;;;;;;25.5;16.1;;;;;;;5.2;76.7;102330;;;;
2021/11/09 22:49:40;;;;;;;22.2;16.3;;;;;;;5.1;77.0;102340;;;;
2021/11/09 22:53:41;;;;;;;22.2;16.3;;;;;;;4.9;77.4;102350;;;;
2021/11/09 22:55:40;;;;;;;22.2;16.3;;;;;;;5.1;76.8;102340;;;;
2021/11/09 22:59:40;;;;;;;22.2;16.3;;;;;;;5.0;77.3;102330;;;;
2021/11/09 23:11:40;;;;;;;22.9;15.9;;;;;;;4.9;77.1;102340;;;;
2021/11/09 23:15:40;;;;;;;22.9;15.9;;;;;;;4.8;77.3;102340;;;;
2021/11/09 23:19:40;;;;;;;22.9;15.9;;;;;;;4.9;77.5;102340;;;;
2021/11/09 23:21:40;;;;;;;22.9;15.9;;;;;;;5.0;77.2;102330;;;;
2021/11/09 23:23:40;;;;;;;22.9;15.9;;;;;;;4.8;77.3;102330;;;;
2021/11/09 23:25:40;;;;;;;22.9;15.9;;;;;;;4.9;77.1;102320;;;;
2021/11/09 23:27:40;;;;;;;21.2;14.8;;;;;;;5.0;77.4;102320;;;;
2021/11/09 23:29:40;;;;;;;21.2;14.8;;;;;;;4.9;76.9;102320;;;;
2021/11/09 23:37:40;;;;;;;21.2;14.8;;;;;;;4.8;77.4;102320;;;;
2021/11/09 23:43:40;;;;;;;21.2;14.8;;;;;;;4.9;76.9;102300;;;;
2021/11/09 23:45:40;;;;;;;21.2;14.8;;;;;;;4.8;77.3;102310;;;;
2021/11/09 23:47:40;;;;;;;22.3;14.6;;;;;;;4.9;77.4;102310;;;;
2021/11/09 23:49:40;;;;;;;22.3;14.6;;;;;;;4.8;77.5;102300;;;;
